Time;durP1;ratioP1;P1;durP2;ratioP2;P2;SDS_P1;SDS_P2;PMS_P1;PMS_P2;Temp;Humidity;BMP_temperature;BMP_pressure;BME280_temperature;BME280_humidity;BME280_pressure;Samples;Min_cycle;Max_cycle;Signal;HPM_P1;HPM_P2
2023/03/27 00:02:38;;;;;;;8.75;3.25;;;;;;;1.58;100.00;100854.66;10308731;28;20053;-76
2023/03/27 00:07:35;;;;;;;8.85;3.67;;;;;;;1.51;100.00;100860.28;10313096;28;20045;-75
2023/03/27 00:12:32;;;;;;;6.68;2.63;;;;;;;1.46;100.00;100874.53;10308642;28;20557;-74
2023/03/27 00:17:29;;;;;;;9.05;3.45;;;;;;;1.41;100.00;100882.53;10302368;28;20429;-74
2023/03/27 00:22:25;;;;;;;6.15;2.67;;;;;;;1.38;100.00;100882.22;10306131;28;20385;-73
2023/03/27 00:27:23;;;;;;;3.83;2.70;;;;;;;1.46;100.00;100879.91;10305178;28;20520;-74
2023/03/27 00:32:20;;;;;;;9.73;2.85;;;;;;;1.35;100.00;100872.78;10306933;28;20053;-78
2023/03/27 00:37:16;;;;;;;8.25;2.97;;;;;;;1.36;100.00;100879.78;10310237;28;20087;-77
2023/03/27 00:42:13;;;;;;;9.30;3.88;;;;;;;1.52;100.00;100877.25;10304897;28;20047;-77
2023/03/27 00:47:11;;;;;;;6.07;2.83;;;;;;;1.45;100.00;100886.34;10305037;28;20518;-77
2023/03/27 00:52:08;;;;;;;7.80;3.10;;;;;;;1.55;100.00;100887.53;10303314;28;20052;-77
2023/03/27 00:57:08;;;;;;;6.07;2.63;;;;;;;1.30;100.00;100902.34;10312189;28;20071;-77
2023/03/27 01:02:05;;;;;;;8.23;3.00;;;;;;;1.36;100.00;100895.94;10313157;28;20090;-77
2023/03/27 01:07:04;;;;;;;7.38;3.55;;;;;;;1.24;100.00;100897.97;11279050;22;20745;-77
2023/03/27 01:12:15;;;;;;;6.30;3.13;;;;;;;1.13;100.00;100896.19;10217103;28;20041;-73
2023/03/27 01:17:44;;;;;;;6.88;2.88;;;;;;;1.09;100.00;100905.84;10195653;28;20161;-73
2023/03/27 01:22:51;;;;;;;7.15;4.25;;;;;;;1.07;100.00;100907.97;10179165;28;20050;-73
2023/03/27 01:28:07;;;;;;;8.75;3.10;;;;;;;1.04;100.00;100904.72;10181297;28;20038;-75
2023/03/27 01:33:41;;;;;;;5.53;3.13;;;;;;;0.98;100.00;100916.50;10177705;28;20050;-75
2023/03/27 01:39:14;;;;;;;7.10;3.10;;;;;;;0.92;100.00;100917.47;10176406;28;20045;-77
2023/03/27 01:44:11;;;;;;;10.25;3.42;;;;;;;0.99;100.00;100918.09;10176381;28;20052;-72
2023/03/27 01:49:14;;;;;;;6.32;3.40;;;;;;;0.94;100.00;100915.34;10176798;28;20084;-73
2023/03/27 01:54:14;;;;;;;;;;;;;;;0.96;100.00;100924.00;10179857;28;20052;-73
2023/03/27 01:59:15;;;;;;;13.65;3.40;;;;;;;0.95;100.00;100938.53;10169675;28;19921;-71
2023/03/27 02:04:33;;;;;;;6.15;3.28;;;;;;;0.98;100.00;100942.59;10177811;28;20503;-71
2023/03/27 02:09:42;;;;;;;7.25;3.10;;;;;;;0.92;100.00;100941.72;10176523;28;20414;-70
2023/03/27 02:14:43;;;;;;;5.75;3.03;;;;;;;0.95;100.00;100954.69;10180958;28;20084;-74
2023/03/27 02:19:48;;;;;;;5.30;3.20;;;;;;;0.91;100.00;100953.56;10178767;28;20060;-70
2023/03/27 02:24:45;;;;;;;9.90;3.90;;;;;;;0.84;100.00;100958.28;10177657;28;20077;-70
2023/03/27 02:30:15;;;;;;;11.20;3.28;;;;;;;0.77;100.00;100952.28;10185959;28;20072;-77
2023/03/27 02:35:44;;;;;;;8.25;3.15;;;;;;;0.74;100.00;100974.28;10158530;28;20526;-77
2023/03/27 02:40:53;;;;;;;10.52;3.78;;;;;;;0.74;100.00;100985.03;10171583;28;20046;-71
2023/03/27 02:45:57;;;;;;;11.93;3.65;;;;;;;0.72;100.00;100987.16;10182609;28;20096;-71
2023/03/27 02:50:56;;;;;;;6.63;3.78;;;;;;;0.77;100.00;100989.97;10184268;28;20049;-71
2023/03/27 02:55:57;;;;;;;8.63;3.90;;;;;;;0.66;100.00;100990.84;10180918;28;20046;-71
2023/03/27 03:00:54;;;;;;;6.75;3.70;;;;;;;0.59;100.00;100999.09;10174942;28;20138;-72
2023/03/27 03:05:51;;;;;;;9.32;3.80;;;;;;;0.51;100.00;101007.53;10178840;28;20050;-71
2023/03/27 03:10:48;;;;;;;10.80;3.72;;;;;;;0.46;100.00;101005.59;10182860;28;20045;-70
2023/03/27 03:15:47;;;;;;;7.57;3.90;;;;;;;0.42;100.00;101004.47;10179852;28;20046;-71
2023/03/27 03:20:45;;;;;;;6.20;4.07;;;;;;;0.34;100.00;101007.53;10174820;28;20137;-77
2023/03/27 03:25:43;;;;;;;9.35;4.43;;;;;;;0.34;100.00;101010.22;10191287;28;20533;-78
2023/03/27 03:30:41;;;;;;;8.82;3.72;;;;;;;0.30;100.00;101017.13;10199396;28;20165;-74
2023/03/27 03:40:54;;;;;;;9.43;4.40;;;;;;;0.29;100.00;101042.41;9076355;26;20488;-74
2023/03/27 03:45:52;;;;;;;7.23;4.50;;;;;;;0.31;100.00;101051.88;10221248;28;20037;-74
2023/03/27 03:50:49;;;;;;;11.18;5.03;;;;;;;0.28;100.00;101056.91;10198773;28;20049;-73
2023/03/27 03:55:49;;;;;;;7.53;4.80;;;;;;;0.34;100.00;101061.31;10189915;28;21851;-72
2023/03/27 04:00:46;;;;;;;6.40;4.30;;;;;;;0.37;100.00;101058.16;10181325;28;20358;-71
2023/03/27 04:05:42;;;;;;;14.55;4.90;;;;;;;0.36;100.00;101061.91;10187640;28;20077;-72
2023/03/27 04:10:40;;;;;;;8.70;4.63;;;;;;;0.31;100.00;101059.13;10211496;28;20395;-71
2023/03/27 04:15:36;;;;;;;9.35;4.80;;;;;;;0.33;100.00;101070.47;10192808;28;20065;-72
2023/03/27 04:20:33;;;;;;;11.10;4.80;;;;;;;0.28;100.00;101089.19;10203068;28;20049;-72
2023/03/27 04:25:30;;;;;;;12.23;4.30;;;;;;;0.30;100.00;101085.22;10193770;28;20076;-72
2023/03/27 04:30:27;;;;;;;7.60;4.75;;;;;;;0.30;100.00;101098.66;10212339;28;20053;-72
2023/03/27 04:35:24;;;;;;;6.65;4.53;;;;;;;0.33;100.00;101097.38;10196914;28;20129;-72
2023/03/27 04:40:21;;;;;;;9.32;5.40;;;;;;;0.34;100.00;101099.00;10192098;28;20045;-72
2023/03/27 04:45:22;;;;;;;9.18;5.40;;;;;;;0.33;100.00;101110.81;10176770;28;20427;-72
2023/03/27 04:50:18;;;;;;;11.25;5.25;;;;;;;0.39;100.00;101123.28;10188824;28;20491;-72
2023/03/27 04:55:15;;;;;;;12.82;5.88;;;;;;;0.38;100.00;101121.66;10200456;28;20049;-73
2023/03/27 05:00:15;;;;;;;15.82;5.25;;;;;;;0.41;100.00;101131.94;10171239;28;20141;-72
2023/03/27 05:05:12;;;;;;;12.85;5.65;;;;;;;0.44;100.00;101147.59;10184197;28;20060;-72
2023/03/27 05:10:09;;;;;;;10.48;5.95;;;;;;;0.29;100.00;101144.63;10197971;28;20125;-71
2023/03/27 05:15:06;;;;;;;6.85;5.10;;;;;;;0.38;100.00;101149.38;10191836;28;20060;-72
2023/03/27 05:20:03;;;;;;;8.32;5.70;;;;;;;0.41;100.00;101158.84;10181004;28;20056;-71
2023/03/27 05:25:00;;;;;;;11.20;5.30;;;;;;;0.47;100.00;101157.09;10190675;28;20477;-72
2023/03/27 05:29:57;;;;;;;9.70;5.03;;;;;;;0.42;100.00;101152.41;10197100;28;20453;-72
2023/03/27 05:34:55;;;;;;;7.10;5.07;;;;;;;0.44;100.00;101174.50;10197040;28;20140;-72
2023/03/27 05:39:51;;;;;;;8.20;5.22;;;;;;;0.48;100.00;101170.28;10194923;28;20103;-72
2023/03/27 05:44:48;;;;;;;5.50;4.95;;;;;;;0.55;100.00;101180.91;10188800;28;20491;-72
2023/03/27 05:49:44;;;;;;;10.77;5.15;;;;;;;0.59;100.00;101182.06;10190355;28;20069;-72
2023/03/27 05:54:41;;;;;;;11.80;5.75;;;;;;;0.68;100.00;101186.00;10182282;28;20050;-72
2023/03/27 05:59:37;;;;;;;10.32;4.68;;;;;;;0.73;100.00;101182.59;10184133;28;20518;-72
2023/03/27 06:04:34;;;;;;;16.20;5.30;;;;;;;0.80;100.00;101189.47;10180010;28;20085;-72
2023/03/27 06:09:31;;;;;;;9.68;5.03;;;;;;;0.88;100.00;101190.13;10198740;28;20116;-72
2023/03/27 06:14:27;;;;;;;9.13;4.90;;;;;;;1.00;100.00;101205.19;10204752;28;20124;-72
2023/03/27 06:19:24;;;;;;;8.50;5.65;;;;;;;1.09;100.00;101202.06;10195979;28;20644;-72
2023/03/27 06:24:21;;;;;;;13.85;5.45;;;;;;;1.12;100.00;101213.19;10182546;28;20054;-72
2023/03/27 06:29:17;;;;;;;10.68;5.55;;;;;;;1.17;100.00;101210.59;10202932;28;20049;-72
2023/03/27 06:34:14;;;;;;;10.65;6.55;;;;;;;1.32;100.00;101220.78;10191397;28;20129;-72
2023/03/27 06:39:10;;;;;;;11.15;6.60;;;;;;;1.38;100.00;101222.53;10170687;28;20495;-72
2023/03/27 06:44:07;;;;;;;10.98;6.60;;;;;;;1.49;100.00;101223.53;10185446;28;20054;-72
2023/03/27 06:49:03;;;;;;;16.90;6.10;;;;;;;1.79;100.00;101235.84;10192130;28;20092;-70
2023/03/27 06:54:00;;;;;;;7.72;6.93;;;;;;;2.16;100.00;101244.22;10197217;28;20096;-73
2023/03/27 06:58:56;;;;;;;12.27;5.88;;;;;;;2.07;100.00;101280.78;10172572;28;20136;-72
2023/03/27 07:03:53;;;;;;;6.22;5.13;;;;;;;1.23;100.00;101276.97;10185010;28;20049;-72
2023/03/27 07:08:49;;;;;;;12.00;6.20;;;;;;;1.09;100.00;101288.25;10187911;28;20042;-73
2023/03/27 07:13:46;;;;;;;8.88;6.03;;;;;;;1.12;100.00;101287.81;10202560;28;20037;-72
2023/03/27 07:18:42;;;;;;;9.73;6.00;;;;;;;1.17;100.00;101306.75;10200383;28;20156;-72
2023/03/27 07:23:39;;;;;;;12.43;6.78;;;;;;;1.50;100.00;101305.19;10187774;28;20135;-72
2023/03/27 07:28:37;;;;;;;9.30;6.88;;;;;;;1.45;100.00;101304.03;10190899;28;20463;-72
2023/03/27 07:33:33;;;;;;;12.77;6.57;;;;;;;1.58;100.00;101310.16;10199800;28;20162;-73
2023/03/27 07:38:30;;;;;;;14.38;7.63;;;;;;;1.94;100.00;101294.59;10167303;28;20042;-72
2023/03/27 07:43:27;;;;;;;11.25;7.22;;;;;;;1.82;100.00;101291.97;10181899;28;20042;-72
2023/03/27 07:48:23;;;;;;;7.15;6.45;;;;;;;1.94;100.00;101294.59;10171077;28;20048;-72
2023/03/27 07:53:20;;;;;;;10.52;7.00;;;;;;;1.96;100.00;101293.28;10176821;28;20042;-72
2023/03/27 07:58:29;;;;;;;11.38;6.00;;;;;;;2.18;100.00;101298.75;10175146;28;20502;-72
2023/03/27 08:03:29;;;;;;;10.23;5.43;;;;;;;2.10;100.00;101304.53;10180017;28;20054;-72
2023/03/27 08:08:27;;;;;;;8.02;5.82;;;;;;;2.33;100.00;101291.94;10192816;28;20038;-72
2023/03/27 08:13:24;;;;;;;7.72;6.03;;;;;;;2.55;100.00;101289.25;10190372;28;20045;-72
2023/03/27 08:18:20;;;;;;;7.43;5.93;;;;;;;2.75;100.00;101294.91;10178422;28;20072;-73
2023/03/27 08:23:18;;;;;;;5.70;4.80;;;;;;;3.06;100.00;101296.06;10187854;28;20053;-73
2023/03/27 08:28:15;;;;;;;6.13;4.90;;;;;;;3.54;100.00;101291.69;10191248;28;20144;-71
2023/03/27 08:33:12;;;;;;;7.65;5.22;;;;;;;3.73;100.00;101294.03;10190051;28;20050;-71
2023/03/27 08:38:08;;;;;;;5.05;4.60;;;;;;;3.43;100.00;101303.50;10186110;28;20056;-71
2023/03/27 08:43:29;;;;;;;7.03;4.90;;;;;;;3.64;100.00;101304.50;10187569;28;20054;-72
2023/03/27 08:48:32;;;;;;;7.85;5.88;;;;;;;3.55;100.00;101320.38;10175077;28;20046;-72
2023/03/27 08:53:42;;;;;;;7.32;4.93;;;;;;;3.68;100.00;101326.44;10185384;28;20515;-71
2023/03/27 08:58:40;;;;;;;9.30;6.20;;;;;;;3.67;100.00;101322.13;10177818;28;20129;-71
2023/03/27 09:03:45;;;;;;;8.20;4.95;;;;;;;3.83;100.00;101326.59;10186613;28;20268;-71
2023/03/27 09:08:56;;;;;;;6.45;5.72;;;;;;;4.08;100.00;101317.84;10173164;28;20048;-71
2023/03/27 09:13:53;;;;;;;9.13;6.03;;;;;;;4.34;100.00;101328.84;10186924;28;20053;-71
2023/03/27 09:19:14;;;;;;;7.40;5.38;;;;;;;4.78;100.00;101321.25;10181679;28;20069;-71
2023/03/27 09:24:27;;;;;;;9.10;5.55;;;;;;;4.84;100.00;101322.06;10187634;28;20045;-72
2023/03/27 09:29:25;;;;;;;8.68;5.10;;;;;;;4.53;100.00;101330.06;10186128;28;20059;-72
2023/03/27 09:34:33;;;;;;;11.63;5.30;;;;;;;4.46;100.00;101337.59;10187796;28;20077;-72
2023/03/27 09:39:32;;;;;;;7.95;5.20;;;;;;;4.59;100.00;101328.19;10171153;28;20070;-71
2023/03/27 09:44:35;;;;;;;7.10;5.13;;;;;;;4.58;100.00;101348.22;10182476;28;20515;-72
2023/03/27 09:49:33;;;;;;;7.80;5.55;;;;;;;4.32;100.00;101350.78;10190170;28;20046;-72
2023/03/27 09:54:50;;;;;;;6.90;5.18;;;;;;;4.66;100.00;101353.13;10188380;28;20073;-72
2023/03/27 10:00:08;;;;;;;7.22;6.45;;;;;;;4.73;100.00;101345.59;10181868;28;20042;-71
2023/03/27 10:05:15;;;;;;;5.47;4.97;;;;;;;4.83;100.00;101356.50;10183525;28;20089;-71
2023/03/27 10:10:18;;;;;;;5.57;5.03;;;;;;;5.36;100.00;101348.28;10200522;28;20091;-71
2023/03/27 10:15:37;;;;;;;6.55;5.13;;;;;;;5.77;100.00;101342.91;10188994;28;20706;-71
2023/03/27 10:20:33;;;;;;;6.22;5.40;;;;;;;5.93;100.00;101353.78;10168498;28;20514;-71
2023/03/27 10:25:44;;;;;;;6.72;5.30;;;;;;;5.39;100.00;101363.22;10180800;28;20529;-72
2023/03/27 10:30:40;;;;;;;7.82;5.78;;;;;;;5.22;100.00;101357.97;10180325;28;20042;-71
2023/03/27 10:35:42;;;;;;;9.38;5.50;;;;;;;4.68;100.00;101375.34;10182724;28;20050;-72
2023/03/27 10:40:41;;;;;;;6.27;5.00;;;;;;;4.35;100.00;101420.63;10184696;28;20165;-73
2023/03/27 10:45:46;;;;;;;4.70;4.30;;;;;;;2.41;100.00;101494.72;10185931;28;20061;-73
2023/03/27 10:50:53;;;;;;;7.60;5.07;;;;;;;0.90;100.00;101532.66;10207495;28;20038;-73
2023/03/27 10:56:04;;;;;;;5.40;4.90;;;;;;;0.58;100.00;101514.97;10187240;28;20048;-73
2023/03/27 11:01:11;;;;;;;9.02;5.45;;;;;;;0.97;100.00;101518.00;10181687;28;20053;-73
2023/03/27 11:06:14;;;;;;;5.43;5.03;;;;;;;2.18;100.00;101511.91;10183020;28;20073;-74
2023/03/27 11:11:25;;;;;;;4.65;4.18;;;;;;;3.33;100.00;101500.72;10189120;28;20137;-74
2023/03/27 11:16:28;;;;;;;4.80;4.28;;;;;;;4.29;100.00;101496.66;10187632;28;20470;-74
2023/03/27 11:21:35;;;;;;;;;;;;;;;4.18;100.00;101468.69;10199659;28;20637;-74
2023/03/27 11:26:38;;;;;;;4.40;4.10;;;;;;;4.07;100.00;101461.53;10190341;28;19957;-74
2023/03/27 11:31:45;;;;;;;5.55;4.18;;;;;;;4.59;100.00;101471.72;10197730;28;20476;-74
2023/03/27 11:36:55;;;;;;;5.57;4.53;;;;;;;5.92;100.00;101453.41;10192210;28;20046;-74
2023/03/27 11:42:01;;;;;;;5.40;4.90;;;;;;;6.18;100.00;101450.75;10175687;28;20104;-74
2023/03/27 11:47:12;;;;;;;5.35;4.90;;;;;;;5.02;100.00;101456.31;10183800;28;20073;-74
2023/03/27 11:52:39;;;;;;;9.65;5.95;;;;;;;4.58;100.00;101478.22;10200134;28;20042;-74
2023/03/27 11:57:57;;;;;;;4.50;4.20;;;;;;;1.21;100.00;101510.75;10196154;28;20055;-74
2023/03/27 12:03:09;;;;;;;5.85;5.28;;;;;;;1.07;100.00;101532.75;10206901;28;20089;-75
2023/03/27 12:08:11;;;;;;;5.90;5.28;;;;;;;1.59;100.00;101535.53;10196762;28;20050;-74
2023/03/27 12:13:27;;;;;;;;;;;;;;;3.09;100.00;101522.56;10198539;28;20531;-73
2023/03/27 12:18:42;;;;;;;5.35;4.82;;;;;;;5.97;100.00;101499.59;10199600;28;19940;-73
2023/03/27 12:24:17;;;;;;;5.82;4.55;;;;;;;7.04;100.00;101462.66;10199661;28;20074;-73
2023/03/27 12:29:56;;;;;;;8.23;5.18;;;;;;;7.92;100.00;101455.75;10205516;28;20060;-74
2023/03/27 12:34:55;;;;;;;5.88;5.10;;;;;;;8.34;100.00;101446.19;10181549;28;20069;-73
2023/03/27 12:39:56;;;;;;;5.97;5.25;;;;;;;9.48;100.00;101423.75;10181906;28;20074;-74
2023/03/27 12:45:26;;;;;;;6.25;5.53;;;;;;;6.29;100.00;101426.06;10196792;28;20468;-74
2023/03/27 12:50:26;;;;;;;5.22;4.78;;;;;;;5.73;100.00;101422.41;10166550;28;20431;-74
2023/03/27 12:55:34;;;;;;;13.00;5.13;;;;;;;4.66;100.00;101461.47;10202083;28;20046;-74
2023/03/27 13:00:31;;;;;;;9.20;5.63;;;;;;;3.76;100.00;101472.88;10192613;28;20092;-74
2023/03/27 13:06:00;;;;;;;10.73;5.28;;;;;;;3.87;100.00;101462.13;10192864;28;20056;-74
2023/03/27 13:11:18;;;;;;;5.28;4.78;;;;;;;3.94;100.00;101458.16;10189030;28;20061;-74
2023/03/27 13:16:35;;;;;;;11.68;5.18;;;;;;;3.99;100.00;101455.53;10216481;28;20530;-73
2023/03/27 13:22:05;;;;;;;5.60;4.25;;;;;;;3.69;100.00;101476.81;10200323;28;20050;-74
2023/03/27 13:27:25;;;;;;;9.43;6.70;;;;;;;3.66;100.00;101483.53;10200529;28;20061;-74
2023/03/27 13:32:37;;;;;;;8.25;4.70;;;;;;;3.95;100.00;101467.91;10195384;28;20054;-74
2023/03/27 13:37:36;;;;;;;5.55;4.50;;;;;;;6.41;100.00;101454.84;10194987;28;20687;-74
2023/03/27 13:42:40;;;;;;;7.60;5.00;;;;;;;7.13;100.00;101452.84;10203401;28;20046;-74
2023/03/27 13:47:43;;;;;;;6.45;5.75;;;;;;;8.97;100.00;101435.25;10189325;28;20041;-74
2023/03/27 13:52:45;;;;;;;6.53;5.45;;;;;;;10.39;100.00;101427.34;10182434;28;20689;-74
2023/03/27 13:58:16;;;;;;;9.90;5.47;;;;;;;8.16;100.00;101423.97;10182545;28;20050;-74
2023/03/27 14:03:40;;;;;;;12.02;5.20;;;;;;;8.16;100.00;101423.97;10183940;28;20044;-74
2023/03/27 14:09:04;;;;;;;10.80;6.05;;;;;;;6.22;100.00;101451.84;10183835;28;20480;-74
2023/03/27 14:14:36;;;;;;;6.75;5.13;;;;;;;6.22;100.00;101435.53;10179499;28;20091;-74
2023/03/27 14:19:48;;;;;;;9.07;5.65;;;;;;;6.13;100.00;101464.31;10162281;28;20046;-74
2023/03/27 14:24:56;;;;;;;8.40;4.80;;;;;;;5.31;100.00;101469.47;10202661;28;20079;-73
2023/03/27 14:30:06;;;;;;;6.95;4.82;;;;;;;5.02;100.00;101462.53;10173409;28;20046;-73
2023/03/27 14:35:03;;;;;;;7.40;4.95;;;;;;;4.67;100.00;101470.44;10181329;28;20050;-73
2023/03/27 14:40:00;;;;;;;5.43;4.38;;;;;;;4.78;100.00;101462.13;10179467;28;20056;-73
2023/03/27 14:45:28;;;;;;;9.05;5.72;;;;;;;3.06;100.00;101501.41;10196234;28;20586;-74
2023/03/27 14:50:30;;;;;;;9.73;5.65;;;;;;;2.98;100.00;101504.56;10179859;28;20711;-73
2023/03/27 14:55:35;;;;;;;10.45;5.60;;;;;;;6.02;100.00;101490.66;10172381;28;20749;-74
2023/03/27 15:00:34;;;;;;;7.85;5.25;;;;;;;5.25;100.00;101477.59;10185782;28;20514;-71
2023/03/27 15:05:31;;;;;;;7.78;5.38;;;;;;;6.20;100.00;101470.31;10192452;28;20562;-72
2023/03/27 15:10:30;;;;;;;7.30;5.07;;;;;;;5.37;100.00;101479.28;10185091;28;20046;-73
2023/03/27 15:15:41;;;;;;;7.30;4.45;;;;;;;5.26;100.00;101487.34;10182248;28;20056;-72
2023/03/27 15:20:39;;;;;;;12.07;4.45;;;;;;;4.68;100.00;101494.56;10184031;28;20042;-71
2023/03/27 15:25:42;;;;;;;5.15;4.53;;;;;;;4.83;100.00;101497.38;10191892;28;20042;-71
2023/03/27 15:30:44;;;;;;;;;;;;;;;5.39;100.00;101488.78;10187172;28;20072;-71
2023/03/27 15:35:44;;;;;;;6.53;4.55;;;;;;;4.92;100.00;101496.88;10193195;28;19929;-72
2023/03/27 15:40:43;;;;;;;6.65;4.13;;;;;;;4.41;100.00;101506.25;10193993;28;20714;-72
2023/03/27 15:45:53;;;;;;;9.90;4.68;;;;;;;4.13;100.00;101511.91;10187807;28;20046;-73
2023/03/27 15:50:58;;;;;;;6.78;4.57;;;;;;;3.99;100.00;101509.63;10200086;28;20060;-71
2023/03/27 15:55:55;;;;;;;8.57;4.80;;;;;;;4.72;100.00;101517.34;10193194;28;20111;-72
2023/03/27 16:00:58;;;;;;;8.63;5.00;;;;;;;5.29;100.00;101504.97;10199532;28;20050;-71
2023/03/27 16:05:57;;;;;;;12.27;4.95;;;;;;;5.39;100.00;101515.09;10185224;28;20190;-72
2023/03/27 16:10:54;;;;;;;6.25;4.50;;;;;;;6.59;100.00;101510.53;10185865;28;20149;-71
2023/03/27 16:16:01;;;;;;;6.93;4.93;;;;;;;7.19;100.00;101497.94;10196011;28;20425;-72
2023/03/27 16:21:09;;;;;;;6.40;5.00;;;;;;;7.15;100.00;101502.34;10191066;28;20046;-70
2023/03/27 16:26:08;;;;;;;6.43;4.55;;;;;;;6.65;100.00;101518.41;10187570;28;20853;-70
2023/03/27 16:31:12;;;;;;;7.97;4.95;;;;;;;6.93;100.00;101506.16;10186800;28;20068;-70
2023/03/27 16:36:11;;;;;;;6.55;4.88;;;;;;;6.04;100.00;101511.00;10204796;28;20054;-70
2023/03/27 16:41:16;;;;;;;11.70;6.18;;;;;;;5.27;100.00;101518.81;10186082;28;20530;-70
2023/03/27 16:46:20;;;;;;;9.38;4.72;;;;;;;5.27;100.00;101518.81;10174270;28;20082;-70
2023/03/27 16:51:19;;;;;;;10.10;5.03;;;;;;;4.69;100.00;101523.28;10187774;28;20081;-72
2023/03/27 16:56:16;;;;;;;13.13;4.70;;;;;;;4.43;100.00;101531.19;10184750;28;20077;-73
2023/03/27 17:01:12;;;;;;;9.57;5.15;;;;;;;3.05;100.00;101563.81;10194937;28;20515;-72
2023/03/27 17:06:11;;;;;;;7.75;4.90;;;;;;;2.69;100.00;101566.78;10198032;28;20076;-72
2023/03/27 17:11:10;;;;;;;7.35;5.15;;;;;;;2.61;100.00;101572.56;10188826;28;20132;-72
2023/03/27 17:16:07;;;;;;;8.23;5.18;;;;;;;2.66;100.00;101588.84;10176945;28;20509;-73
2023/03/27 17:21:04;;;;;;;8.55;5.90;;;;;;;2.69;100.00;101590.22;10188749;28;20045;-70
2023/03/27 17:26:02;;;;;;;17.23;6.75;;;;;;;2.84;100.00;101635.63;10206926;28;20585;-72
2023/03/27 17:31:00;;;;;;;11.65;4.40;;;;;;;2.43;100.00;101627.56;10181081;28;20446;-72
2023/03/27 17:36:07;;;;;;;7.05;4.80;;;;;;;2.52;100.00;101625.31;10179028;28;20058;-72
2023/03/27 17:41:05;;;;;;;8.52;4.90;;;;;;;2.55;100.00;101619.41;10177063;28;20045;-70
2023/03/27 17:46:01;;;;;;;14.57;6.97;;;;;;;2.62;100.00;101624.66;10179743;28;20132;-71
2023/03/27 17:50:58;;;;;;;11.52;5.30;;;;;;;2.57;100.00;101625.41;10182815;28;20049;-71
2023/03/27 17:56:06;;;;;;;7.22;4.82;;;;;;;2.53;100.00;101626.97;10201032;28;20076;-71
2023/03/27 18:01:15;;;;;;;13.13;5.20;;;;;;;2.56;100.00;101615.69;10206166;28;20422;-71
2023/03/27 18:06:13;;;;;;;9.48;4.95;;;;;;;2.51;100.00;101629.09;10195929;28;20061;-71
2023/03/27 18:11:11;;;;;;;8.35;4.53;;;;;;;2.71;100.00;101640.22;10199931;28;20050;-71
2023/03/27 18:16:10;;;;;;;13.57;5.20;;;;;;;2.82;100.00;101637.72;10205704;28;20045;-67
2023/03/27 18:21:07;;;;;;;7.65;4.43;;;;;;;2.78;100.00;101636.56;10188969;28;20080;-67
2023/03/27 18:26:05;;;;;;;10.05;4.55;;;;;;;2.82;100.00;101645.84;10189483;28;20059;-68
2023/03/27 18:31:04;;;;;;;12.18;4.80;;;;;;;2.86;100.00;101664.00;10185490;28;20081;-67
2023/03/27 18:36:03;;;;;;;11.60;4.65;;;;;;;2.59;100.00;101663.78;10179547;28;20080;-65
2023/03/27 18:41:00;;;;;;;9.93;4.25;;;;;;;2.49;100.00;101674.41;10195234;28;20073;-66
2023/03/27 18:45:59;;;;;;;9.52;4.40;;;;;;;2.36;100.00;101669.28;10186338;28;20456;-66
2023/03/27 18:51:02;;;;;;;12.45;4.85;;;;;;;2.30;100.00;101666.47;10192035;28;20041;-68
2023/03/27 18:55:59;;;;;;;13.35;4.18;;;;;;;2.27;100.00;101672.31;10189258;28;20523;-66
2023/03/27 19:00:57;;;;;;;9.85;4.28;;;;;;;2.33;100.00;101659.78;10189354;28;20099;-68
2023/03/27 19:05:59;;;;;;;15.90;4.40;;;;;;;2.29;100.00;101667.50;10189824;28;20088;-66
2023/03/27 19:10:56;;;;;;;7.90;4.30;;;;;;;2.19;100.00;101664.63;10198888;28;20457;-65
2023/03/27 19:15:53;;;;;;;10.93;4.15;;;;;;;2.25;100.00;101671.78;10192014;28;20495;-67
2023/03/27 19:20:51;;;;;;;13.60;5.82;;;;;;;2.29;100.00;101672.09;10202839;28;20054;-66
2023/03/27 19:25:49;;;;;;;11.13;4.22;;;;;;;2.31;100.00;101660.00;10183919;28;20290;-67
2023/03/27 19:30:46;;;;;;;12.93;5.13;;;;;;;2.35;100.00;101652.25;10187787;28;20044;-66
2023/03/27 19:35:42;;;;;;;10.75;4.78;;;;;;;2.53;100.00;101659.38;10185720;28;20084;-66
2023/03/27 19:40:39;;;;;;;9.82;4.57;;;;;;;2.61;100.00;101656.25;10188523;28;20073;-66
2023/03/27 19:45:36;;;;;;;8.23;3.80;;;;;;;2.63;100.00;101651.44;10192993;28;20065;-66
2023/03/27 19:50:32;;;;;;;11.23;5.45;;;;;;;2.69;100.00;101664.00;10193065;28;20137;-66
2023/03/27 19:55:29;;;;;;;10.57;4.50;;;;;;;2.73;100.00;101675.09;10190683;28;20050;-66
2023/03/27 20:00:25;;;;;;;12.73;4.50;;;;;;;2.45;100.00;101684.03;10178493;28;20049;-66
2023/03/27 20:05:23;;;;;;;8.57;3.92;;;;;;;1.60;100.00;101671.94;10182127;28;20065;-66
2023/03/27 20:10:40;;;;;;;6.13;3.47;;;;;;;1.33;100.00;101703.94;10187709;28;20049;-78
2023/03/27 20:15:51;;;;;;;8.27;3.90;;;;;;;1.15;100.00;101702.13;10201693;28;20153;-73
2023/03/27 20:20:49;;;;;;;10.70;4.10;;;;;;;1.12;100.00;101713.38;10195227;28;20045;-71
2023/03/27 20:25:50;;;;;;;11.30;4.60;;;;;;;1.14;100.00;101722.03;10199001;28;20486;-70
2023/03/27 20:30:47;;;;;;;11.87;4.50;;;;;;;1.29;100.00;101730.50;10201247;28;20041;-72
2023/03/27 20:35:43;;;;;;;8.93;5.00;;;;;;;1.51;100.00;101727.25;10196288;28;20060;-71
2023/03/27 20:40:49;;;;;;;15.40;4.45;;;;;;;1.61;100.00;101743.69;10426800;23;20084;-74
2023/03/27 20:45:50;;;;;;;13.82;5.05;;;;;;;1.71;100.00;101743.94;10308511;28;20055;-74
2023/03/27 20:50:54;;;;;;;17.75;4.85;;;;;;;1.69;100.00;101735.25;10340177;28;20047;-72
2023/03/27 20:56:05;;;;;;;10.85;4.35;;;;;;;1.73;100.00;101741.00;10351663;28;20040;-72
2023/03/27 21:01:07;;;;;;;8.80;4.00;;;;;;;1.70;100.00;101784.63;10350732;28;20131;-73
2023/03/27 21:06:05;;;;;;;;;;;;;;;0.76;100.00;101779.72;10345818;28;20505;-73
2023/03/27 21:11:02;;;;;;;9.13;4.70;;;;;;;0.68;100.00;101723.50;10354891;28;20041;-72
2023/03/27 21:15:59;;;;;;;12.88;5.10;;;;;;;0.99;100.00;101736.72;10345920;28;20097;-71
2023/03/27 21:20:56;;;;;;;8.95;3.40;;;;;;;0.88;100.00;101724.03;10345799;28;20102;-74
2023/03/27 21:25:53;;;;;;;13.48;3.80;;;;;;;0.79;100.00;101741.56;10346329;28;20139;-74
2023/03/27 21:30:50;;;;;;;9.77;4.07;;;;;;;0.79;100.00;101742.41;10350053;28;20082;-73
2023/03/27 21:35:48;;;;;;;18.45;5.55;;;;;;;0.83;100.00;101748.97;10336269;28;20041;-73
2023/03/27 21:40:45;;;;;;;8.65;3.78;;;;;;;0.94;100.00;101747.38;10338603;28;20134;-74
2023/03/27 21:45:42;;;;;;;9.77;4.35;;;;;;;0.98;100.00;101735.09;10352546;28;20043;-72
2023/03/27 21:50:38;;;;;;;12.15;3.55;;;;;;;1.21;100.00;101738.94;10349060;28;21380;-72
2023/03/27 21:55:36;;;;;;;12.13;3.50;;;;;;;1.22;100.00;101745.94;10341716;28;20699;-73
2023/03/27 22:00:32;;;;;;;15.98;4.93;;;;;;;1.32;100.00;101735.41;10346538;28;20554;-71
2023/03/27 22:05:29;;;;;;;12.48;4.32;;;;;;;1.41;100.00;101749.38;10345462;28;20068;-71
2023/03/27 22:10:26;;;;;;;14.48;3.70;;;;;;;1.47;100.00;101776.25;10338125;28;20044;-73
2023/03/27 22:15:22;;;;;;;11.82;3.67;;;;;;;1.46;100.00;101790.78;10331303;28;20049;-74
2023/03/27 22:20:19;;;;;;;9.25;4.65;;;;;;;1.32;100.00;101783.94;10340699;28;20542;-74
2023/03/27 22:25:16;;;;;;;12.63;4.18;;;;;;;1.18;100.00;101798.66;10345587;28;20703;-74
2023/03/27 22:30:13;;;;;;;15.88;4.00;;;;;;;1.09;100.00;101811.63;10334664;28;20223;-72
2023/03/27 22:35:10;;;;;;;8.35;3.90;;;;;;;1.21;100.00;101798.22;10354955;28;20412;-72
2023/03/27 22:40:07;;;;;;;15.70;4.63;;;;;;;1.09;100.00;101811.63;10350755;28;20040;-73
2023/03/27 22:45:04;;;;;;;7.50;3.63;;;;;;;0.97;100.00;101811.53;10338531;28;20032;-72
2023/03/27 22:50:01;;;;;;;14.32;4.47;;;;;;;0.93;100.00;101823.84;10344171;28;20565;-73
2023/03/27 22:54:57;;;;;;;7.03;3.53;;;;;;;0.87;100.00;101822.03;10342338;28;20394;-72
2023/03/27 22:59:54;;;;;;;10.05;3.90;;;;;;;0.81;100.00;101825.63;10334387;28;20072;-70
2023/03/27 23:04:50;;;;;;;20.27;6.53;;;;;;;0.74;100.00;101841.88;10336038;28;20048;-70
2023/03/27 23:09:46;;;;;;;9.32;3.85;;;;;;;0.62;100.00;101852.53;10341673;28;20528;-72
2023/03/27 23:14:43;;;;;;;10.20;4.32;;;;;;;0.58;100.00;101859.44;10342341;28;20067;-72